createdAt,value
2017-10-06T00:00:35.923Z,1008.21
2017-10-06T00:01:35.896Z,1008.26
2017-10-06T00:02:35.869Z,1008.29
2017-10-06T00:03:35.847Z,1008.31
2017-10-06T00:04:35.824Z,1008.28
2017-10-06T00:05:35.805Z,1008.24
2017-10-06T00:06:35.777Z,1008.28
2017-10-06T00:07:35.752Z,1008.22
2017-10-06T00:08:35.731Z,1008.24
2017-10-06T00:09:35.706Z,1008.23
2017-10-06T00:10:35.683Z,1008.25
2017-10-06T00:11:35.659Z,1008.24
2017-10-06T00:12:35.633Z,1008.22
2017-10-06T00:13:35.613Z,1008.19
2017-10-06T00:14:35.589Z,1008.23
2017-10-06T00:15:35.563Z,1008.2
2017-10-06T00:16:35.541Z,1008.2
2017-10-06T00:17:35.516Z,1008.22
2017-10-06T00:18:35.497Z,1008.2
2017-10-06T00:19:35.470Z,1008.19
2017-10-06T00:20:35.448Z,1008.16
2017-10-06T00:21:35.423Z,1008.19
2017-10-06T00:22:35.399Z,1008.24
2017-10-06T00:23:35.377Z,1008.21
2017-10-06T00:24:35.353Z,1008.22
2017-10-06T00:25:35.328Z,1008.14
2017-10-06T00:26:35.305Z,1008.19
2017-10-06T00:27:35.282Z,1008.2
2017-10-06T00:28:35.259Z,1008.17
2017-10-06T00:29:35.236Z,1008.15
2017-10-06T00:30:35.212Z,1008.17
2017-10-06T00:31:35.188Z,1008.16
2017-10-06T00:32:35.163Z,1008.14
2017-10-06T00:33:35.140Z,1008.2
2017-10-06T00:34:35.115Z,1008.18
2017-10-06T00:35:35.093Z,1008.23
2017-10-06T00:36:35.070Z,1008.15
2017-10-06T00:37:35.046Z,1008.21
2017-10-06T00:38:35.025Z,1008.23
2017-10-06T00:39:34.999Z,1008.2
2017-10-06T00:40:34.973Z,1008.26
2017-10-06T00:41:34.952Z,1008.18
2017-10-06T00:42:34.929Z,1008.2
2017-10-06T00:43:34.907Z,1008.25
2017-10-06T00:44:34.883Z,1008.24
2017-10-06T00:45:34.858Z,1008.23
2017-10-06T00:46:34.832Z,1008.25
2017-10-06T00:47:34.809Z,1008.28
2017-10-06T00:48:34.786Z,1008.27
2017-10-06T00:49:34.764Z,1008.21
2017-10-06T00:50:34.737Z,1008.25
2017-10-06T00:51:34.719Z,1008.27
2017-10-06T00:52:34.692Z,1008.27
2017-10-06T00:53:34.670Z,1008.29
2017-10-06T00:54:34.645Z,1008.27
2017-10-06T00:55:34.625Z,1008.27
2017-10-06T00:56:34.601Z,1008.26
2017-10-06T00:57:34.573Z,1008.27
2017-10-06T00:58:34.550Z,1008.25
2017-10-06T00:59:34.527Z,1008.27
2017-10-06T01:00:34.503Z,1008.28
2017-10-06T01:01:34.480Z,1008.24
2017-10-06T01:02:34.456Z,1008.23
2017-10-06T01:03:34.432Z,1008.25
2017-10-06T01:04:34.407Z,1008.22
2017-10-06T01:05:34.386Z,1008.2
2017-10-06T01:06:34.366Z,1008.24
2017-10-06T01:07:34.339Z,1008.26
2017-10-06T01:08:34.315Z,1008.3
2017-10-06T01:09:34.290Z,1008.24
2017-10-06T01:10:34.272Z,1008.21
2017-10-06T01:11:34.246Z,1008.19
2017-10-06T01:12:34.221Z,1008.19
2017-10-06T01:13:34.198Z,1008.17
2017-10-06T01:14:34.180Z,1008.18
2017-10-06T01:15:34.150Z,1008.15
2017-10-06T01:16:34.126Z,1008.13
2017-10-06T01:17:34.103Z,1008.18
2017-10-06T01:18:34.079Z,1008.14
2017-10-06T01:19:34.057Z,1008.17
2017-10-06T01:20:34.032Z,1008.17
2017-10-06T01:21:34.012Z,1008.13
2017-10-06T01:22:33.987Z,1008.17
2017-10-06T01:23:33.964Z,1008.13
2017-10-06T01:24:33.938Z,1008.13
2017-10-06T01:25:33.915Z,1008.14
2017-10-06T01:26:33.894Z,1008.14
2017-10-06T01:27:33.870Z,1008.12
2017-10-06T01:28:33.845Z,1008.11
2017-10-06T01:29:33.873Z,1008.14
2017-10-06T01:30:33.801Z,1008.06
2017-10-06T01:31:33.781Z,1008.06
2017-10-06T01:32:33.753Z,1008.06
2017-10-06T01:33:33.731Z,1008.06
2017-10-06T01:34:33.706Z,1008.08
2017-10-06T01:35:33.685Z,1008.09
2017-10-06T01:36:33.661Z,1008.05
2017-10-06T01:37:33.636Z,1008.07
2017-10-06T01:38:33.612Z,1007.99
2017-10-06T01:39:33.595Z,1007.98
2017-10-06T01:40:33.568Z,1007.99
2017-10-06T01:41:33.545Z,1008
2017-10-06T01:42:33.519Z,1007.97
2017-10-06T01:43:33.499Z,1007.98
2017-10-06T01:44:33.473Z,1007.93
2017-10-06T01:45:33.447Z,1007.96
2017-10-06T01:46:33.424Z,1007.96
2017-10-06T01:47:33.403Z,1007.93
2017-10-06T01:48:33.380Z,1007.95
2017-10-06T01:49:33.355Z,1007.97
2017-10-06T01:50:33.332Z,1007.97
2017-10-06T01:51:33.308Z,1008
2017-10-06T01:52:33.282Z,1008.02
2017-10-06T01:53:33.258Z,1008
2017-10-06T01:54:33.241Z,1008.04
2017-10-06T01:55:33.215Z,1007.98
2017-10-06T01:56:33.190Z,1008
2017-10-06T01:57:33.170Z,1007.97
2017-10-06T01:58:33.144Z,1007.93
2017-10-06T01:59:33.120Z,1007.89
2017-10-06T02:00:33.097Z,1007.96
2017-10-06T02:01:33.073Z,1007.94
2017-10-06T02:02:33.055Z,1007.93
2017-10-06T02:03:33.026Z,1007.87
2017-10-06T02:04:33.006Z,1007.94
2017-10-06T02:05:32.981Z,1007.92
2017-10-06T02:06:32.956Z,1007.85
2017-10-06T02:07:32.933Z,1007.84
2017-10-06T02:08:32.909Z,1007.85
2017-10-06T02:09:32.886Z,1007.89
2017-10-06T02:10:32.865Z,1007.8
2017-10-06T02:11:32.842Z,1007.83
2017-10-06T02:12:32.817Z,1007.83
2017-10-06T02:13:32.794Z,1007.83
2017-10-06T02:14:32.770Z,1007.87
2017-10-06T02:15:32.745Z,1007.84
2017-10-06T02:16:32.722Z,1007.86
2017-10-06T02:17:32.700Z,1007.89
2017-10-06T02:18:32.675Z,1007.81
2017-10-06T02:19:32.656Z,1007.86
2017-10-06T02:20:32.631Z,1007.86
2017-10-06T02:21:32.604Z,1007.86
2017-10-06T02:22:32.582Z,1007.88
2017-10-06T02:23:32.560Z,1007.89
2017-10-06T02:24:32.536Z,1007.85
2017-10-06T02:25:32.511Z,1007.9
2017-10-06T02:26:32.487Z,1007.92
2017-10-06T02:27:32.463Z,1007.92
2017-10-06T02:28:32.445Z,1007.91
2017-10-06T02:29:32.422Z,1007.96
2017-10-06T02:30:32.390Z,1008.01
2017-10-06T02:31:32.366Z,1007.96
2017-10-06T02:32:32.343Z,1007.96
2017-10-06T02:33:32.319Z,1007.93
2017-10-06T02:34:32.297Z,1007.92
2017-10-06T02:35:32.274Z,1008.01
2017-10-06T02:36:32.250Z,1008.02
2017-10-06T02:37:32.227Z,1008.02
2017-10-06T02:38:32.204Z,1007.99
2017-10-06T02:39:32.182Z,1008.09
2017-10-06T02:40:32.158Z,1007.99
2017-10-06T02:41:32.131Z,1008.02
2017-10-06T02:42:32.112Z,1007.99
2017-10-06T02:43:32.086Z,1007.98
2017-10-06T02:44:32.063Z,1007.94
2017-10-06T02:45:32.046Z,1007.89
2017-10-06T02:46:32.013Z,1007.84
2017-10-06T02:47:31.995Z,1007.89
2017-10-06T02:48:31.972Z,1007.85
2017-10-06T02:49:31.945Z,1007.85
2017-10-06T02:50:31.920Z,1007.85
2017-10-06T02:51:31.899Z,1007.87
2017-10-06T02:52:31.875Z,1007.88
2017-10-06T02:53:31.855Z,1007.9
2017-10-06T02:54:31.828Z,1007.87
2017-10-06T02:55:31.806Z,1007.89
2017-10-06T02:56:31.786Z,1007.81
2017-10-06T02:57:31.757Z,1007.86
2017-10-06T02:58:31.738Z,1007.84
2017-10-06T02:59:31.712Z,1007.87
2017-10-06T03:00:31.687Z,1007.87
2017-10-06T03:01:31.663Z,1007.9
2017-10-06T03:02:31.639Z,1007.88
2017-10-06T03:03:31.614Z,1007.88
2017-10-06T03:04:31.592Z,1007.85
2017-10-06T03:05:31.569Z,1007.85
2017-10-06T03:06:31.546Z,1007.94
2017-10-06T03:07:31.525Z,1007.88
2017-10-06T03:08:31.500Z,1007.92
2017-10-06T03:09:31.476Z,1007.89
2017-10-06T03:10:31.451Z,1007.92
2017-10-06T03:11:31.430Z,1007.87
2017-10-06T03:12:31.406Z,1007.91
2017-10-06T03:13:31.382Z,1007.85
2017-10-06T03:14:31.359Z,1007.83
2017-10-06T03:15:31.339Z,1007.87
2017-10-06T03:16:31.314Z,1007.9
2017-10-06T03:17:31.287Z,1007.86
2017-10-06T03:18:31.263Z,1007.83
2017-10-06T03:19:31.241Z,1007.81
2017-10-06T03:20:31.217Z,1007.84
2017-10-06T03:21:31.196Z,1007.85
2017-10-06T03:22:31.170Z,1007.84
2017-10-06T03:23:31.148Z,1007.82
2017-10-06T03:24:31.128Z,1007.85
2017-10-06T03:25:31.100Z,1007.88
2017-10-06T03:26:31.079Z,1007.88
2017-10-06T03:27:31.053Z,1007.84
2017-10-06T03:28:31.029Z,1007.92
2017-10-06T03:29:31.007Z,1007.94
2017-10-06T03:30:30.980Z,1007.94
2017-10-06T03:31:30.964Z,1007.95
2017-10-06T03:32:30.932Z,1007.93
2017-10-06T03:33:30.911Z,1007.92
2017-10-06T03:34:30.888Z,1007.92
2017-10-06T03:35:30.869Z,1007.89
2017-10-06T03:36:30.845Z,1007.93
2017-10-06T03:37:30.817Z,1007.88
2017-10-06T03:38:30.795Z,1007.85
2017-10-06T03:39:30.772Z,1007.93
2017-10-06T03:40:30.747Z,1007.95
2017-10-06T03:41:30.728Z,1007.89
2017-10-06T03:42:30.703Z,1007.89
2017-10-06T03:43:30.677Z,1007.89
2017-10-06T03:44:30.654Z,1007.9
2017-10-06T03:45:30.631Z,1007.88
2017-10-06T03:46:30.607Z,1007.92
2017-10-06T03:47:30.590Z,1007.93
2017-10-06T03:48:30.566Z,1007.96
2017-10-06T03:49:30.536Z,1007.95
2017-10-06T03:50:30.514Z,1007.95
2017-10-06T03:51:30.491Z,1007.98
2017-10-06T03:52:30.466Z,1008
2017-10-06T03:53:30.443Z,1007.96
2017-10-06T03:54:30.420Z,1007.96
2017-10-06T03:55:30.398Z,1007.96
2017-10-06T03:56:30.374Z,1007.94
2017-10-06T03:57:30.352Z,1007.97
2017-10-06T03:58:30.326Z,1007.89
2017-10-06T03:59:30.308Z,1007.89
2017-10-06T04:00:30.281Z,1007.85
2017-10-06T04:01:30.256Z,1007.9
2017-10-06T04:02:30.232Z,1007.91
2017-10-06T04:03:30.238Z,1007.85
2017-10-06T04:04:30.184Z,1007.89
2017-10-06T04:05:30.158Z,1007.96
2017-10-06T04:06:30.135Z,1007.91
2017-10-06T04:07:30.112Z,1007.91
2017-10-06T04:08:30.089Z,1007.9
2017-10-06T04:09:30.068Z,1007.95
2017-10-06T04:10:30.044Z,1007.92
2017-10-06T04:11:30.019Z,1007.93
2017-10-06T04:12:29.993Z,1007.87
2017-10-06T04:13:29.973Z,1007.9
2017-10-06T04:14:29.947Z,1007.89
2017-10-06T04:15:29.922Z,1007.88
2017-10-06T04:16:29.899Z,1007.91
2017-10-06T04:17:29.877Z,1007.87
2017-10-06T04:18:29.852Z,1007.9
2017-10-06T04:19:29.827Z,1007.93
2017-10-06T04:20:29.804Z,1007.9
2017-10-06T04:21:29.781Z,1007.91
2017-10-06T04:22:29.754Z,1007.86
2017-10-06T04:23:29.733Z,1007.83
2017-10-06T04:24:29.710Z,1007.85
2017-10-06T04:25:29.687Z,1007.87
2017-10-06T04:26:29.661Z,1007.87
2017-10-06T04:27:29.637Z,1007.93
2017-10-06T04:28:29.613Z,1007.86
2017-10-06T04:29:29.589Z,1007.83
2017-10-06T04:30:29.570Z,1007.8
2017-10-06T04:31:29.543Z,1007.76
2017-10-06T04:32:29.521Z,1007.8
2017-10-06T04:33:29.493Z,1007.83
2017-10-06T04:34:29.471Z,1007.86
2017-10-06T04:35:29.450Z,1007.86
2017-10-06T04:36:29.424Z,1007.85
2017-10-06T04:37:29.404Z,1007.87
2017-10-06T04:38:29.376Z,1007.89
2017-10-06T04:39:29.352Z,1007.86
2017-10-06T04:40:29.323Z,1007.87
2017-10-06T04:41:29.302Z,1007.87
2017-10-06T04:42:29.279Z,1007.89
2017-10-06T04:43:29.256Z,1007.85
2017-10-06T04:44:29.231Z,1007.88
2017-10-06T04:45:29.208Z,1007.85
2017-10-06T04:46:29.184Z,1007.86
2017-10-06T04:47:29.161Z,1007.88
2017-10-06T04:48:29.137Z,1007.9
2017-10-06T04:49:29.113Z,1007.89
2017-10-06T04:50:29.089Z,1007.89
2017-10-06T04:51:29.066Z,1007.86
2017-10-06T04:52:29.039Z,1007.88
2017-10-06T04:53:29.018Z,1007.88
2017-10-06T04:54:28.992Z,1007.92
2017-10-06T04:55:28.971Z,1007.97
2017-10-06T04:56:28.944Z,1007.95
2017-10-06T04:57:28.925Z,1007.94
2017-10-06T04:58:28.898Z,1007.92
2017-10-06T04:59:28.871Z,1007.92
2017-10-06T05:00:28.856Z,1007.92
2017-10-06T05:01:28.831Z,1007.9
2017-10-06T05:02:28.801Z,1007.96
2017-10-06T05:03:28.775Z,1007.95
2017-10-06T05:04:28.754Z,1007.95
2017-10-06T05:05:28.732Z,1007.97
2017-10-06T05:06:28.706Z,1007.91
2017-10-06T05:07:28.688Z,1007.95
2017-10-06T05:08:28.660Z,1007.99
2017-10-06T05:09:28.636Z,1008.06
2017-10-06T05:10:28.611Z,1008.03
2017-10-06T05:11:28.588Z,1008.06
2017-10-06T05:12:28.565Z,1008.02
2017-10-06T05:13:28.539Z,1008.02
2017-10-06T05:14:28.516Z,1008.04
2017-10-06T05:15:28.493Z,1008.02
2017-10-06T05:16:28.468Z,1008.05
2017-10-06T05:17:28.444Z,1008.06
2017-10-06T05:18:28.427Z,1008.03
2017-10-06T05:19:28.396Z,1008.05
2017-10-06T05:20:28.373Z,1008.09
2017-10-06T05:21:28.350Z,1008.12
2017-10-06T05:22:28.326Z,1008.14
2017-10-06T05:23:28.305Z,1008.16
2017-10-06T05:24:28.282Z,1008.16
2017-10-06T05:25:28.255Z,1008.12
2017-10-06T05:26:28.229Z,1008.16
2017-10-06T05:27:28.216Z,1008.13
2017-10-06T05:28:28.183Z,1008.12
2017-10-06T05:29:28.157Z,1008.08
2017-10-06T05:30:28.134Z,1008.07
2017-10-06T05:31:28.112Z,1008.07
2017-10-06T05:32:28.086Z,1008.08
2017-10-06T05:33:28.063Z,1008.08
2017-10-06T05:34:28.040Z,1008.1
2017-10-06T05:35:28.016Z,1008.13
2017-10-06T05:36:27.998Z,1008.12
2017-10-06T05:37:27.970Z,1008.09
2017-10-06T05:38:27.945Z,1008.11
2017-10-06T05:39:27.922Z,1008.13
2017-10-06T05:40:27.899Z,1008.08
2017-10-06T05:41:27.873Z,1008.13
2017-10-06T05:42:27.850Z,1008.13
2017-10-06T05:43:27.824Z,1008.13
2017-10-06T05:44:27.802Z,1008.1
2017-10-06T05:45:27.778Z,1008.04
2017-10-06T05:46:27.753Z,1008.09
2017-10-06T05:47:27.730Z,1008.11
2017-10-06T05:48:27.707Z,1008.09
2017-10-06T05:49:27.683Z,1008.1
2017-10-06T05:50:27.657Z,1008.08
2017-10-06T05:51:27.634Z,1008.2
2017-10-06T05:52:27.613Z,1008.13
2017-10-06T05:53:27.589Z,1008.14
2017-10-06T05:54:27.564Z,1008.19
2017-10-06T05:55:27.541Z,1008.19
2017-10-06T05:56:27.518Z,1008.15
2017-10-06T05:57:27.492Z,1008.18
2017-10-06T05:58:27.469Z,1008.16
2017-10-06T05:59:27.456Z,1008.13
2017-10-06T06:00:27.431Z,1008.17
2017-10-06T06:01:27.399Z,1008.16
2017-10-06T06:02:27.374Z,1008.12
2017-10-06T06:03:27.351Z,1008.09
2017-10-06T06:04:27.327Z,1008.13
2017-10-06T06:05:27.304Z,1008.05
2017-10-06T06:06:27.281Z,1008.14
2017-10-06T06:07:27.258Z,1008.09
2017-10-06T06:08:27.233Z,1008.18
2017-10-06T06:09:27.214Z,1008.18
2017-10-06T06:10:27.186Z,1008.17
2017-10-06T06:11:27.163Z,1008.19
2017-10-06T06:12:27.138Z,1008.23
2017-10-06T06:13:27.116Z,1008.25
2017-10-06T06:14:27.091Z,1008.17
2017-10-06T06:15:27.069Z,1008.25
2017-10-06T06:16:27.050Z,1008.27
2017-10-06T06:17:27.026Z,1008.25
2017-10-06T06:18:26.998Z,1008.27
2017-10-06T06:19:26.973Z,1008.28
2017-10-06T06:20:26.949Z,1008.24
2017-10-06T06:21:26.949Z,1008.22
2017-10-06T06:22:26.904Z,1008.3
2017-10-06T06:23:26.880Z,1008.28
2017-10-06T06:24:26.859Z,1008.31
2017-10-06T06:25:26.834Z,1008.25
2017-10-06T06:26:26.811Z,1008.28
2017-10-06T06:27:26.787Z,1008.29
2017-10-06T06:28:26.770Z,1008.26
2017-10-06T06:29:26.741Z,1008.27
2017-10-06T06:30:26.717Z,1008.3
2017-10-06T06:31:26.694Z,1008.3
2017-10-06T06:32:26.672Z,1008.31
2017-10-06T06:33:26.650Z,1008.33
2017-10-06T06:34:26.623Z,1008.38
2017-10-06T06:35:26.602Z,1008.33
2017-10-06T06:36:26.580Z,1008.37
2017-10-06T06:37:26.556Z,1008.32
2017-10-06T06:38:26.534Z,1008.33
2017-10-06T06:39:26.512Z,1008.34
2017-10-06T06:40:26.487Z,1008.34
2017-10-06T06:41:26.465Z,1008.34
2017-10-06T06:42:26.441Z,1008.35
2017-10-06T06:43:26.418Z,1008.39
2017-10-06T06:44:26.396Z,1008.42
2017-10-06T06:45:26.378Z,1008.46
2017-10-06T06:46:26.350Z,1008.43
2017-10-06T06:47:26.329Z,1008.46
2017-10-06T06:48:26.309Z,1008.48
2017-10-06T06:49:26.285Z,1008.54
2017-10-06T06:50:26.259Z,1008.53
2017-10-06T06:51:26.238Z,1008.58
2017-10-06T06:52:26.217Z,1008.55
2017-10-06T06:53:26.200Z,1008.54
2017-10-06T06:54:26.169Z,1008.58
2017-10-06T06:55:26.147Z,1008.61
2017-10-06T06:56:26.124Z,1008.66
2017-10-06T06:57:26.106Z,1008.59
2017-10-06T06:58:26.079Z,1008.55
2017-10-06T06:59:26.057Z,1008.63
2017-10-06T07:00:26.034Z,1008.55
2017-10-06T07:01:26.012Z,1008.55
2017-10-06T07:02:25.990Z,1008.52
2017-10-06T07:03:25.966Z,1008.55
2017-10-06T07:04:25.943Z,1008.54
2017-10-06T07:05:25.922Z,1008.54
2017-10-06T07:06:25.903Z,1008.52
2017-10-06T07:07:25.875Z,1008.55
2017-10-06T07:08:25.852Z,1008.52
2017-10-06T07:09:25.831Z,1008.54
2017-10-06T07:10:25.807Z,1008.64
2017-10-06T07:11:25.785Z,1008.6
2017-10-06T07:12:25.761Z,1008.63
2017-10-06T07:13:25.739Z,1008.66
2017-10-06T07:14:25.716Z,1008.63
2017-10-06T07:15:25.692Z,1008.64
2017-10-06T07:16:25.670Z,1008.66
2017-10-06T07:17:25.647Z,1008.68
2017-10-06T07:18:25.626Z,1008.66
2017-10-06T07:19:25.603Z,1008.75
2017-10-06T07:20:25.579Z,1008.76
2017-10-06T07:21:25.556Z,1008.75
2017-10-06T07:22:25.540Z,1008.72
2017-10-06T07:23:25.516Z,1008.7
2017-10-06T07:24:25.491Z,1008.71
2017-10-06T07:25:25.465Z,1008.69
2017-10-06T07:26:25.448Z,1008.7
2017-10-06T07:27:25.421Z,1008.67
2017-10-06T07:28:25.398Z,1008.72
2017-10-06T07:29:25.374Z,1008.74
2017-10-06T07:30:25.349Z,1008.78
2017-10-06T07:31:25.329Z,1008.76
2017-10-06T07:32:25.305Z,1008.79
2017-10-06T07:33:25.283Z,1008.83
2017-10-06T07:34:25.264Z,1008.79
2017-10-06T07:35:25.239Z,1008.76
2017-10-06T07:36:25.214Z,1008.81
2017-10-06T07:37:25.191Z,1008.83
2017-10-06T07:38:25.173Z,1008.75
2017-10-06T07:39:25.142Z,1008.8
2017-10-06T07:40:25.125Z,1008.84
2017-10-06T07:41:25.098Z,1008.85
2017-10-06T07:42:25.080Z,1008.86
2017-10-06T07:43:25.056Z,1008.9
2017-10-06T07:44:25.030Z,1008.83
2017-10-06T07:45:25.007Z,1008.9
2017-10-06T07:46:24.992Z,1008.9
2017-10-06T07:47:24.962Z,1008.93
2017-10-06T07:48:24.956Z,1008.98
2017-10-06T07:49:24.915Z,1008.96
2017-10-06T07:50:24.894Z,1008.96
2017-10-06T07:51:24.869Z,1008.96
2017-10-06T07:52:24.851Z,1008.94
2017-10-06T07:53:24.827Z,1008.96
2017-10-06T07:54:24.803Z,1008.94
2017-10-06T07:55:24.780Z,1008.98
2017-10-06T07:56:24.757Z,1009
2017-10-06T07:57:24.735Z,1008.98
2017-10-06T07:58:24.711Z,1009.02
2017-10-06T07:59:24.687Z,1008.96
2017-10-06T08:00:24.666Z,1009.02
2017-10-06T08:01:24.649Z,1009.02
2017-10-06T08:02:24.619Z,1009.06
2017-10-06T08:03:24.601Z,1009.17
2017-10-06T08:04:24.574Z,1009.21
2017-10-06T08:05:24.554Z,1009.23
2017-10-06T08:06:24.533Z,1009.2
2017-10-06T08:07:24.514Z,1009.23
2017-10-06T08:08:24.485Z,1009.25
2017-10-06T08:09:24.461Z,1009.19
2017-10-06T08:10:24.439Z,1009.3
2017-10-06T08:11:24.417Z,1009.29
2017-10-06T08:12:24.392Z,1009.28
2017-10-06T08:13:24.370Z,1009.3
2017-10-06T08:14:24.348Z,1009.24
2017-10-06T08:15:24.326Z,1009.31
2017-10-06T08:16:24.307Z,1009.3
2017-10-06T08:17:24.281Z,1009.36
2017-10-06T08:18:24.259Z,1009.36
2017-10-06T08:19:24.234Z,1009.41
2017-10-06T08:20:24.216Z,1009.36
2017-10-06T08:21:24.184Z,1009.4
2017-10-06T08:22:24.164Z,1009.39
2017-10-06T08:23:24.142Z,1009.4
2017-10-06T08:24:24.119Z,1009.4
2017-10-06T08:25:24.096Z,1009.39
2017-10-06T08:26:24.075Z,1009.48
2017-10-06T08:27:24.049Z,1009.43
2017-10-06T08:28:24.026Z,1009.45
2017-10-06T08:29:24.004Z,1009.43
2017-10-06T08:30:23.982Z,1009.44
2017-10-06T08:31:23.957Z,1009.44
2017-10-06T08:32:23.938Z,1009.45
2017-10-06T08:33:23.919Z,1009.49
2017-10-06T08:34:23.891Z,1009.57
2017-10-06T08:35:23.868Z,1009.52
2017-10-06T08:36:23.848Z,1009.56
2017-10-06T08:37:23.823Z,1009.65
2017-10-06T08:38:23.809Z,1009.56
2017-10-06T08:39:23.777Z,1009.6
2017-10-06T08:40:23.756Z,1009.57
2017-10-06T08:41:23.733Z,1009.58
2017-10-06T08:42:23.709Z,1009.62
2017-10-06T08:43:23.686Z,1009.64
2017-10-06T08:44:23.665Z,1009.63
2017-10-06T08:45:23.648Z,1009.64
2017-10-06T08:46:23.622Z,1009.71
2017-10-06T08:47:23.597Z,1009.69
2017-10-06T08:48:23.575Z,1009.71
2017-10-06T08:49:23.557Z,1009.73
2017-10-06T08:50:23.528Z,1009.79
2017-10-06T08:51:23.506Z,1009.81
2017-10-06T08:52:23.484Z,1009.76
2017-10-06T08:53:23.464Z,1009.79
2017-10-06T08:54:23.438Z,1009.8
2017-10-06T08:55:23.417Z,1009.84
2017-10-06T08:56:23.395Z,1009.9
2017-10-06T08:57:23.371Z,1009.86
2017-10-06T08:58:23.348Z,1009.87
2017-10-06T08:59:23.327Z,1009.89
2017-10-06T09:00:23.304Z,1009.9
2017-10-06T09:01:23.280Z,1009.9
2017-10-06T09:02:23.267Z,1010.03
2017-10-06T09:03:23.234Z,1010
2017-10-06T09:04:23.212Z,1010
2017-10-06T09:05:23.188Z,1010.01
2017-10-06T09:06:23.168Z,1010
2017-10-06T09:07:23.145Z,1010.02
2017-10-06T09:08:23.124Z,1010.04
2017-10-06T09:09:23.100Z,1010.04
2017-10-06T09:10:23.077Z,1010.06
2017-10-06T09:11:23.054Z,1010.07
2017-10-06T09:12:23.035Z,1010.06
2017-10-06T09:13:23.012Z,1010.03
2017-10-06T09:14:22.990Z,1009.97
2017-10-06T09:15:22.965Z,1009.98
2017-10-06T09:16:22.940Z,1010.03
2017-10-06T09:17:22.918Z,1010.02
2017-10-06T09:18:22.895Z,1010.01
2017-10-06T09:19:22.874Z,1010
2017-10-06T09:20:22.850Z,1010.04
2017-10-06T09:21:22.828Z,1010.01
2017-10-06T09:22:22.803Z,1010.07
2017-10-06T09:23:22.786Z,1010.03
2017-10-06T09:24:22.761Z,1010.02
2017-10-06T09:25:22.738Z,1010.02
2017-10-06T09:26:22.715Z,1010.03
2017-10-06T09:27:22.692Z,1010.01
2017-10-06T09:28:22.671Z,1010.04
2017-10-06T09:29:22.643Z,1009.99
2017-10-06T09:30:22.625Z,1010.04
2017-10-06T09:31:22.610Z,1010.02
2017-10-06T09:32:22.577Z,1010.01
2017-10-06T09:33:22.555Z,1010.07
2017-10-06T09:34:22.529Z,1010.11
2017-10-06T09:35:22.507Z,1010.13
2017-10-06T09:36:22.485Z,1010.15
2017-10-06T09:37:22.462Z,1010.2
2017-10-06T09:38:22.439Z,1010.22
2017-10-06T09:39:22.418Z,1010.25
2017-10-06T09:40:22.393Z,1010.21
2017-10-06T09:41:22.370Z,1010.26
2017-10-06T09:42:22.344Z,1010.27
2017-10-06T09:43:22.328Z,1010.24
2017-10-06T09:44:22.301Z,1010.24
2017-10-06T09:45:22.276Z,1010.21
2017-10-06T09:46:22.258Z,1010.25
2017-10-06T09:47:22.233Z,1010.28
2017-10-06T09:48:22.211Z,1010.32
2017-10-06T09:49:22.185Z,1010.32
2017-10-06T09:50:22.162Z,1010.38
2017-10-06T09:51:22.140Z,1010.38
2017-10-06T09:52:22.116Z,1010.44
2017-10-06T09:53:22.091Z,1010.39
2017-10-06T09:54:22.071Z,1010.4
2017-10-06T09:55:22.048Z,1010.39
2017-10-06T09:56:22.027Z,1010.45
2017-10-06T09:57:22.000Z,1010.43
2017-10-06T09:58:21.979Z,1010.44
2017-10-06T09:59:21.965Z,1010.41
2017-10-06T10:00:21.935Z,1010.41
2017-10-06T10:01:21.911Z,1010.4
2017-10-06T10:02:21.888Z,1010.41
2017-10-06T10:03:21.864Z,1010.43
2017-10-06T10:04:21.841Z,1010.41
2017-10-06T10:05:21.821Z,1010.46
2017-10-06T10:06:21.797Z,1010.5
2017-10-06T10:07:21.776Z,1010.45
2017-10-06T10:08:21.753Z,1010.52
2017-10-06T10:09:21.729Z,1010.47
2017-10-06T10:10:21.706Z,1010.53
2017-10-06T10:11:21.683Z,1010.57
2017-10-06T10:12:21.661Z,1010.6
2017-10-06T10:13:21.644Z,1010.62
2017-10-06T10:14:21.639Z,1010.64
2017-10-06T10:15:21.593Z,1010.74
2017-10-06T10:16:21.569Z,1010.72
2017-10-06T10:17:21.551Z,1010.69
2017-10-06T10:18:21.524Z,1010.68
2017-10-06T10:19:21.503Z,1010.65
2017-10-06T10:20:21.481Z,1010.66
2017-10-06T10:21:21.457Z,1010.68
2017-10-06T10:22:21.434Z,1010.75
2017-10-06T10:23:21.416Z,1010.76
2017-10-06T10:24:21.389Z,1010.78
2017-10-06T10:25:21.377Z,1010.77
2017-10-06T10:26:21.353Z,1010.79
2017-10-06T10:27:21.319Z,1010.78
2017-10-06T10:28:21.299Z,1010.8
2017-10-06T10:29:21.275Z,1010.85
2017-10-06T10:30:21.253Z,1010.78
2017-10-06T10:31:21.230Z,1010.82
2017-10-06T10:32:21.207Z,1010.84
2017-10-06T10:33:21.183Z,1010.93
2017-10-06T10:34:21.163Z,1010.86
2017-10-06T10:35:21.140Z,1010.87
2017-10-06T10:36:21.117Z,1010.86
2017-10-06T10:37:21.095Z,1010.82
2017-10-06T10:38:21.070Z,1010.85
2017-10-06T10:39:21.051Z,1010.82
2017-10-06T10:40:21.028Z,1010.86
2017-10-06T10:41:21.007Z,1010.9
2017-10-06T10:42:20.985Z,1010.81
2017-10-06T10:43:20.962Z,1010.83
2017-10-06T10:44:20.940Z,1010.9
2017-10-06T10:45:20.921Z,1010.9
2017-10-06T10:46:20.896Z,1010.94
2017-10-06T10:47:20.877Z,1010.87
2017-10-06T10:48:20.851Z,1010.9
2017-10-06T10:49:20.829Z,1010.92
2017-10-06T10:50:20.807Z,1010.94
2017-10-06T10:51:20.786Z,1010.95
2017-10-06T10:52:20.764Z,1010.95
2017-10-06T10:53:20.743Z,1010.95
2017-10-06T10:54:20.721Z,1010.99
2017-10-06T10:55:20.725Z,1010.96
2017-10-06T10:56:20.678Z,1010.95
2017-10-06T10:57:20.653Z,1010.99
2017-10-06T10:58:20.632Z,1010.96
2017-10-06T10:59:20.613Z,1011.04
2017-10-06T11:00:20.587Z,1010.98
2017-10-06T11:01:20.569Z,1010.95
2017-10-06T11:02:20.544Z,1010.97
2017-10-06T11:03:20.522Z,1010.89
2017-10-06T11:04:20.502Z,1010.97
2017-10-06T11:05:20.477Z,1011.01
2017-10-06T11:06:20.451Z,1010.99
2017-10-06T11:07:20.436Z,1011.02
2017-10-06T11:08:20.414Z,1011.02
2017-10-06T11:09:20.389Z,1010.9
2017-10-06T11:10:20.372Z,1010.87
2017-10-06T11:11:20.347Z,1010.87
2017-10-06T11:12:20.325Z,1010.89
2017-10-06T11:13:20.305Z,1010.81
2017-10-06T11:14:20.284Z,1010.88
2017-10-06T11:15:20.259Z,1010.83
2017-10-06T11:16:20.238Z,1010.92
2017-10-06T11:17:20.216Z,1010.91
2017-10-06T11:18:20.197Z,1010.9
2017-10-06T11:19:20.175Z,1010.97
2017-10-06T11:20:20.155Z,1011.01
2017-10-06T11:21:20.131Z,1010.91
2017-10-06T11:22:20.107Z,1010.98
2017-10-06T11:23:20.086Z,1010.96
2017-10-06T11:24:20.066Z,1010.94
2017-10-06T11:25:20.043Z,1010.96
2017-10-06T11:26:20.022Z,1010.98
2017-10-06T11:27:20.006Z,1011
2017-10-06T11:28:19.979Z,1010.99
2017-10-06T11:29:19.958Z,1011.01
2017-10-06T11:30:19.935Z,1011
2017-10-06T11:31:19.916Z,1011
2017-10-06T11:32:19.892Z,1011.03
2017-10-06T11:33:19.876Z,1010.92
2017-10-06T11:34:19.850Z,1011.03
2017-10-06T11:35:19.832Z,1010.99
2017-10-06T11:36:19.811Z,1010.97
2017-10-06T11:37:19.785Z,1010.95
2017-10-06T11:38:19.767Z,1010.89
2017-10-06T11:39:19.745Z,1010.93
2017-10-06T11:40:19.723Z,1010.91
2017-10-06T11:41:19.704Z,1010.94
2017-10-06T11:42:19.680Z,1011.05
2017-10-06T11:43:19.659Z,1010.99
2017-10-06T11:44:19.640Z,1011.03
2017-10-06T11:45:19.615Z,1011.07
2017-10-06T11:46:19.594Z,1011.04
2017-10-06T11:47:19.573Z,1011.06
2017-10-06T11:48:19.552Z,1011.07
2017-10-06T11:49:19.528Z,1011.06
2017-10-06T11:50:19.506Z,1011.04
2017-10-06T11:51:19.487Z,1011.04
2017-10-06T11:52:19.468Z,1011.06
2017-10-06T11:53:19.441Z,1011.1
2017-10-06T11:54:19.420Z,1011.05
2017-10-06T11:55:19.397Z,1011.07
2017-10-06T11:56:19.375Z,1011.1
2017-10-06T11:57:19.352Z,1011.12
2017-10-06T11:58:19.333Z,1011.11
2017-10-06T11:59:19.306Z,1011.07
2017-10-06T12:00:19.287Z,1011.12
2017-10-06T12:01:19.268Z,1011.06
2017-10-06T12:02:19.260Z,1011.02
2017-10-06T12:03:19.221Z,1011.02
2017-10-06T12:04:19.198Z,1011.04
2017-10-06T12:05:19.177Z,1011.06
2017-10-06T12:06:19.153Z,1011.08
2017-10-06T12:07:19.134Z,1011.1
2017-10-06T12:08:19.110Z,1011.09